首页
METAR-TAF:

METAR-TAF

机场 :

坦帕, 佛罗里达州, 美国

纬度: 27-51N, 经度: 082-30W, 海拔: 4米

当前天气观测

该预报发布于41分钟前的16:55 UTC
风速4节,风向西转西南
温度 31°C
湿度 63%
气压 1015 hPa
能見度: 16.1公里
多云层高于3800英尺

METAR: KMCF 241655Z AUTO 25004KT 10SM BKN038 31/23 A2997 RMK AO2 SLP151 T03130231 FZRANO $

时间: 13:36 (17:36 UTC)

预报

该预报发布于36分钟前的17:00 UTC
预报有效从24日的 17点(UTC)到 25日的 23点(UTC)
风速6节,风向多变
能见度10公里或以上
多云层高于4000英尺
多云层高于7000英尺
成为
从 24日的 17点(UTC)到 24日的 18点(UTC)
风速9节,风向西
能见度10公里或以上
散云层高于4000英尺
多云层高于10000英尺
附近有阵雨
短暂存在
从 24日的 18点(UTC)到 24日的 23点(UTC)
能見度: 8000
多云层高于3000英尺
小阵雨
成为
从 25日的 00点(UTC)到 25日的 01点(UTC)
风速6节,风向多变
能见度10公里或以上
散云层高于6000英尺
多云层高于12000英尺
成为
从 25日的 15点(UTC)到 25日的 16点(UTC)
风速6节,风向西转西北
能见度10公里或以上
多云层高于5000英尺

TAF: KMCF 241700Z 2417/2523 VRB06KT 9999 BKN040 BKN070 QNH2995INS BECMG 2417/2418 28009KT 9999 VCSH SCT040 BKN100 QNH2990INS TEMPO 2418/2423 8000 -SHRA BKN030 BECMG 2500/2501 VRB06KT 9999 NSW SCT060 BKN120 QNH2989INS BECMG 2515/2516 29006KT 9999 BKN050 QNH2991INS TX32/2419Z TN25/2508Z

超过4000个机场的气象观测和天气预报(METAR&TAF报告)。

可查询的气象台以黄色和红色小点在地图上表示。

将鼠标移到小点上方,可查看气象台名称。

然后点击查看天气观测和预报。

如需切换地图:点击带黑十字的绿色按钮放大地图;点击带横线的绿色按钮缩小地图;或者点击绿色箭头查看邻近地区的地图。


METAR-TAF: